Time;durP1;ratioP1;P1;durP2;ratioP2;P2;SDS_P1;SDS_P2;PMS_P1;PMS_P2;Temp;Humidity;BMP_temperature;BMP_pressure;BME280_temperature;BME280_humidity;BME280_pressure;Samples;Min_cycle;Max_cycle;Signal;HPM_P1;HPM_P2
2022/09/26 00:01:13;;;;;;;5.97;1.20;;;;;;;11.98;100.00;99980.81;4800398;30;20031;-81
2022/09/26 00:03:38;;;;;;;4.35;1.00;;;;;;;11.83;100.00;99959.66;4806256;29;20703;-81
2022/09/26 00:06:07;;;;;;;4.88;1.10;;;;;;;11.63;100.00;99932.13;4803566;29;20054;-81
2022/09/26 00:08:33;;;;;;;5.07;1.35;;;;;;;11.88;100.00;99972.47;4818548;29;20058;-81
2022/09/26 00:11:00;;;;;;;3.80;1.20;;;;;;;11.86;100.00;99966.50;4818296;29;20080;-81
2022/09/26 00:13:26;;;;;;;4.43;1.08;;;;;;;11.85;100.00;99954.84;4801244;29;20059;-80
2022/09/26 00:15:53;;;;;;;5.10;1.50;;;;;;;11.84;100.00;99955.91;4800963;29;20039;-81
2022/09/26 00:18:19;;;;;;;3.88;1.13;;;;;;;11.63;100.00;99924.06;4789311;29;20395;-81
2022/09/26 00:20:44;;;;;;;4.15;1.45;;;;;;;11.17;100.00;99845.47;4821298;29;20095;-81
2022/09/26 00:23:09;;;;;;;3.85;1.60;;;;;;;11.42;100.00;99882.25;4814065;29;20035;-81
2022/09/26 00:25:35;;;;;;;6.78;1.63;;;;;;;11.67;100.00;99917.97;4798764;29;20488;-81
2022/09/26 00:28:00;;;;;;;5.60;1.58;;;;;;;11.81;100.00;99936.66;4834084;29;20519;-80
2022/09/26 00:30:26;;;;;;;6.18;1.50;;;;;;;11.81;100.00;99942.03;4819300;29;20031;-81
2022/09/26 00:32:51;;;;;;;5.57;1.33;;;;;;;11.66;100.00;99912.81;4826082;29;20034;-81
2022/09/26 00:35:17;;;;;;;5.18;1.73;;;;;;;11.47;100.00;99867.03;4801458;29;20441;-81
2022/09/26 00:37:42;;;;;;;5.45;1.70;;;;;;;11.77;100.00;99912.84;4800985;29;20046;-81
2022/09/26 00:40:08;;;;;;;7.15;2.20;;;;;;;11.81;100.00;99924.00;4802154;29;20061;-80
2022/09/26 00:42:34;;;;;;;6.50;1.40;;;;;;;11.70;100.00;99909.44;4829151;29;20108;-81
2022/09/26 00:44:59;;;;;;;6.15;1.50;;;;;;;11.64;100.00;99891.47;4805145;29;20030;-81
2022/09/26 00:47:47;;;;;;;6.65;1.60;;;;;;;11.77;100.00;99912.84;4815360;29;20026;-80
2022/09/26 00:50:15;;;;;;;5.15;1.77;;;;;;;11.75;100.00;99919.50;4830170;29;20086;-80
2022/09/26 00:52:58;;;;;;;5.70;1.55;;;;;;;11.27;100.00;99842.25;4815669;29;20030;-81
2022/09/26 00:55:31;;;;;;;4.65;1.52;;;;;;;11.63;100.00;99899.81;4830339;29;20027;-81
2022/09/26 00:58:03;;;;;;;3.80;1.50;;;;;;;11.44;100.00;99867.50;4812311;29;20035;-81
2022/09/26 01:00:29;;;;;;;5.47;1.60;;;;;;;11.65;100.00;99909.28;4817270;29;20107;-81
2022/09/26 01:02:56;;;;;;;5.78;1.35;;;;;;;11.51;100.00;99884.38;4817503;29;20026;-80
2022/09/26 01:05:23;;;;;;;6.40;1.48;;;;;;;11.52;100.00;99890.59;4815713;29;20035;-81
2022/09/26 01:07:51;;;;;;;6.70;1.73;;;;;;;11.60;100.00;99898.38;4814816;29;20049;-80
2022/09/26 01:10:17;;;;;;;4.00;1.38;;;;;;;11.61;100.00;99900.00;4815622;29;20054;-81
2022/09/26 01:12:42;;;;;;;5.55;1.30;;;;;;;11.60;100.00;99898.38;4815236;29;20180;-81
2022/09/26 01:15:09;;;;;;;5.68;1.55;;;;;;;11.56;100.00;99894.50;4831295;29;20026;-81
2022/09/26 01:17:40;;;;;;;4.00;1.20;;;;;;;11.52;100.00;99887.91;4830606;29;20031;-81
2022/09/26 01:20:16;;;;;;;5.00;1.40;;;;;;;11.47;100.00;99882.38;4832071;29;20022;-81
2022/09/26 01:23:07;;;;;;;8.38;1.48;;;;;;;11.50;100.00;99882.75;4829473;29;20532;-81
2022/09/26 01:25:50;;;;;;;4.10;1.20;;;;;;;11.48;100.00;99887.53;4797183;29;20042;-81
2022/09/26 01:28:54;;;;;;;4.65;1.20;;;;;;;11.33;100.00;99856.69;4797846;29;20045;-81
2022/09/26 01:31:41;;;;;;;7.88;1.25;;;;;;;11.43;100.00;99883.91;4815783;29;20401;-81
2022/09/26 01:34:15;;;;;;;5.05;1.20;;;;;;;11.40;100.00;99876.28;4815543;29;20125;-81
2022/09/26 01:36:41;;;;;;;5.35;1.20;;;;;;;11.39;100.00;99874.59;4832938;29;20449;-81
2022/09/26 01:39:29;;;;;;;8.48;1.20;;;;;;;11.38;100.00;99875.66;4834067;29;20033;-81
2022/09/26 01:42:16;;;;;;;3.15;0.90;;;;;;;11.35;100.00;99870.72;4818363;29;20041;-81
2022/09/26 01:44:55;;;;;;;5.43;1.20;;;;;;;11.33;100.00;99867.47;4837088;29;20067;-81
2022/09/26 01:47:26;;;;;;;6.70;1.00;;;;;;;11.15;100.00;99852.94;4816489;29;20037;-81
2022/09/26 01:50:20;;;;;;;3.10;0.90;;;;;;;10.98;100.00;99814.25;4832197;29;20060;-81
2022/09/26 01:53:08;;;;;;;4.68;0.93;;;;;;;11.28;100.00;99866.25;4818857;29;20045;-81
2022/09/26 01:55:56;;;;;;;4.63;1.10;;;;;;;11.27;100.00;99867.31;4813521;29;20027;-80
2022/09/26 01:58:24;;;;;;;4.47;1.00;;;;;;;11.21;100.00;99848.53;4830083;29;20346;-81
2022/09/26 02:00:53;;;;;;;6.10;1.13;;;;;;;11.26;100.00;99856.78;4813027;29;20030;-81
2022/09/26 02:03:26;;;;;;;3.55;1.00;;;;;;;11.19;100.00;99848.78;4828164;29;20062;-81
2022/09/26 02:06:07;;;;;;;6.03;0.93;;;;;;;10.85;100.00;99784.78;4812100;29;20106;-81
2022/09/26 02:08:32;;;;;;;3.80;0.90;;;;;;;11.21;100.00;99848.53;4827507;29;20038;-81
2022/09/26 02:11:05;;;;;;;6.47;1.00;;;;;;;10.98;100.00;99820.44;4830505;29;20027;-79
2022/09/26 02:13:36;;;;;;;4.63;1.10;;;;;;;11.22;100.00;99840.22;4827899;29;20027;-81
2022/09/26 02:16:08;;;;;;;5.15;1.10;;;;;;;11.09;100.00;99813.47;4826710;29;20026;-81
2022/09/26 02:18:42;;;;;;;4.38;1.20;;;;;;;10.96;100.00;99786.72;4826937;29;20612;-80
2022/09/26 02:21:20;;;;;;;7.10;1.20;;;;;;;11.13;100.00;99817.38;4811014;29;20034;-81
2022/09/26 02:23:48;;;;;;;8.02;1.20;;;;;;;11.21;100.00;99824.31;4810652;29;20495;-80
2022/09/26 02:26:14;;;;;;;5.45;1.08;;;;;;;11.23;100.00;99828.41;4796252;29;20062;-80
2022/09/26 02:28:39;;;;;;;8.20;1.45;;;;;;;11.12;100.00;99804.13;4811304;29;20541;-81
2022/09/26 02:31:07;;;;;;;7.57;1.10;;;;;;;11.17;100.00;99815.88;4797000;29;20034;-80
2022/09/26 02:33:53;;;;;;;6.70;1.17;;;;;;;11.20;100.00;99815.41;4796080;29;20084;-80
2022/09/26 02:36:19;;;;;;;7.15;1.50;;;;;;;11.11;100.00;99802.47;4826516;29;20377;-80
2022/09/26 02:38:45;;;;;;;10.05;1.17;;;;;;;11.14;100.00;99807.41;4795378;29;20053;-80
2022/09/26 02:41:26;;;;;;;7.15;1.40;;;;;;;11.13;100.00;99805.78;4810148;29;20034;-80
2022/09/26 02:44:06;;;;;;;5.18;1.27;;;;;;;11.10;100.00;99807.06;4824687;29;20427;-80
2022/09/26 02:47:17;;;;;;;5.85;1.30;;;;;;;11.01;100.00;99790.38;4809542;29;20026;-80
2022/09/26 02:50:10;;;;;;;5.00;1.20;;;;;;;11.04;100.00;99789.94;4782620;29;20118;-80
2022/09/26 02:52:42;;;;;;;4.55;1.10;;;;;;;11.10;100.00;99795.47;4825587;29;20046;-80
2022/09/26 02:55:17;;;;;;;9.20;1.45;;;;;;;10.89;100.00;99765.25;4816011;29;20027;-80
2022/09/26 02:57:43;;;;;;;3.53;1.13;;;;;;;11.04;100.00;99789.94;4813388;29;20058;-81
2022/09/26 03:00:22;;;;;;;11.48;1.80;;;;;;;10.75;100.00;99737.72;4821526;29;20041;-80
2022/09/26 03:03:18;;;;;;;8.73;1.45;;;;;;;10.93;100.00;99754.91;4828256;29;20746;-81
2022/09/26 03:05:47;;;;;;;6.32;1.58;;;;;;;11.06;100.00;99765.50;4826185;29;20042;-80
2022/09/26 03:08:24;;;;;;;6.68;1.90;;;;;;;11.05;100.00;99766.50;4819641;29;20050;-80
2022/09/26 03:10:51;;;;;;;7.10;1.40;;;;;;;10.89;100.00;99734.84;4827537;29;20057;-80
2022/09/26 03:13:18;;;;;;;9.43;1.70;;;;;;;10.98;100.00;99747.75;4822131;29;20042;-81
2022/09/26 03:15:51;;;;;;;5.95;1.42;;;;;;;11.04;100.00;99756.81;4813570;29;20031;-81
2022/09/26 03:18:21;;;;;;;7.07;1.45;;;;;;;10.89;100.00;99732.16;4833121;29;20035;-81
2022/09/26 03:20:47;;;;;;;8.65;1.70;;;;;;;10.53;100.00;99666.63;4831604;29;20153;-80
2022/09/26 03:23:12;;;;;;;8.10;1.73;;;;;;;11.01;100.00;99743.81;4810446;29;20437;-80
2022/09/26 03:25:38;;;;;;;6.25;1.67;;;;;;;11.01;100.00;99749.19;4795502;29;20039;-80
2022/09/26 03:28:04;;;;;;;6.85;1.58;;;;;;;11.00;100.00;99744.84;4779567;29;20067;-80
2022/09/26 03:30:30;;;;;;;7.55;1.33;;;;;;;10.97;100.00;99742.63;4809518;29;20113;-80
2022/09/26 03:32:55;;;;;;;8.68;1.70;;;;;;;11.02;100.00;99734.66;4827688;29;20026;-81
2022/09/26 03:35:21;;;;;;;8.35;1.40;;;;;;;10.88;100.00;99717.88;4783026;29;20031;-80
2022/09/26 03:37:47;;;;;;;8.10;1.45;;;;;;;11.01;100.00;99731.16;4809799;29;20026;-80
2022/09/26 03:40:13;;;;;;;9.45;2.05;;;;;;;10.87;100.00;99708.19;4797785;29;20447;-81
2022/09/26 03:42:39;;;;;;;8.25;1.40;;;;;;;10.98;100.00;99720.03;4830784;29;20066;-80
2022/09/26 03:45:09;;;;;;;4.55;1.23;;;;;;;10.95;100.00;99712.41;4814614;29;20039;-80
2022/09/26 03:47:36;;;;;;;12.48;1.50;;;;;;;10.68;100.00;99661.66;4830332;29;20036;-80
2022/09/26 03:50:03;;;;;;;7.53;1.52;;;;;;;10.70;100.00;99659.56;4828000;29;20046;-82
2022/09/26 03:52:29;;;;;;;6.43;1.48;;;;;;;9.90;100.00;99528.00;4910747;24;20066;-82
2022/09/26 03:54:55;;;;;;;8.52;1.50;;;;;;;10.48;100.00;99635.00;4850975;29;20464;-81
2022/09/26 03:57:21;;;;;;;9.50;1.80;;;;;;;9.45;100.00;99463.88;4860832;29;20033;-82
2022/09/26 03:59:48;;;;;;;8.57;1.65;;;;;;;10.24;100.00;99584.84;4860065;29;20030;-82
2022/09/26 04:02:15;;;;;;;9.52;1.70;;;;;;;10.10;100.00;99554.63;4858274;29;20049;-82
2022/09/26 04:04:41;;;;;;;8.30;1.70;;;;;;;9.56;100.00;99468.47;4858257;29;20025;-82
2022/09/26 04:07:07;;;;;;;6.47;1.38;;;;;;;10.33;100.00;99587.03;4859881;29;20139;-81
2022/09/26 04:09:32;;;;;;;7.18;1.50;;;;;;;10.38;100.00;99609.72;4844638;29;20022;-81
2022/09/26 04:11:58;;;;;;;4.72;1.50;;;;;;;10.94;100.00;99676.59;4844920;29;21706;-81
2022/09/26 04:14:23;;;;;;;6.88;1.88;;;;;;;10.66;100.00;99631.47;4827058;29;20092;-81
2022/09/26 04:16:48;;;;;;;9.02;1.42;;;;;;;10.94;100.00;99670.41;4844843;29;20022;-81
2022/09/26 04:19:14;;;;;;;4.50;1.23;;;;;;;10.57;100.00;99619.38;4843701;29;20125;-81
2022/09/26 04:21:40;;;;;;;4.68;1.60;;;;;;;10.89;100.00;99657.63;4846090;29;20138;-81
2022/09/26 04:24:07;;;;;;;10.45;1.60;;;;;;;10.88;100.00;99663.25;4829159;29;20362;-81
2022/09/26 04:26:32;;;;;;;8.77;1.88;;;;;;;10.86;100.00;99658.09;4846768;29;20021;-81
2022/09/26 04:28:58;;;;;;;9.38;2.05;;;;;;;10.86;100.00;99652.72;4853178;29;20033;-81
2022/09/26 04:31:26;;;;;;;7.10;1.83;;;;;;;10.87;100.00;99650.84;4849038;29;20037;-81
2022/09/26 04:33:55;;;;;;;8.27;1.58;;;;;;;10.64;100.00;99614.72;4847865;29;20041;-81
2022/09/26 04:36:22;;;;;;;7.82;1.52;;;;;;;10.87;100.00;99648.16;4839122;29;20090;-80
2022/09/26 04:38:48;;;;;;;11.02;1.75;;;;;;;10.74;100.00;99622.25;4841611;29;20062;-81
2022/09/26 04:41:19;;;;;;;9.10;1.60;;;;;;;10.87;100.00;99638.19;4829235;29;20041;-81
2022/09/26 04:43:45;;;;;;;7.75;1.80;;;;;;;10.87;100.00;99642.78;4830538;29;20034;-81
2022/09/26 04:46:15;;;;;;;6.43;1.85;;;;;;;10.80;100.00;99627.53;4842301;29;20042;-80
2022/09/26 04:48:40;;;;;;;9.45;1.90;;;;;;;10.86;100.00;99641.09;4842044;29;20108;-81
2022/09/26 04:51:10;;;;;;;8.50;1.65;;;;;;;10.86;100.00;99641.97;4811784;29;20132;-80
2022/09/26 04:53:37;;;;;;;6.05;1.58;;;;;;;10.51;100.00;99580.75;4841857;29;20160;-82
2022/09/26 04:56:03;;;;;;;6.93;1.60;;;;;;;10.85;100.00;99628.72;4844585;29;20026;-81
2022/09/26 04:58:29;;;;;;;8.73;1.60;;;;;;;10.74;100.00;99612.31;4839737;29;20368;-80
2022/09/26 05:00:55;;;;;;;7.63;1.50;;;;;;;10.87;100.00;99630.13;4825538;29;20393;-80
2022/09/26 05:03:20;;;;;;;7.70;1.80;;;;;;;10.89;100.00;99624.50;4840576;29;20110;-80
2022/09/26 05:05:49;;;;;;;4.80;1.50;;;;;;;10.81;100.00;99604.13;4840488;29;20542;-80
2022/09/26 05:08:15;;;;;;;5.95;1.50;;;;;;;10.51;100.00;99547.69;4841788;29;20034;-80
2022/09/26 05:10:41;;;;;;;6.78;1.90;;;;;;;10.74;100.00;99571.13;4840916;29;20040;-80
2022/09/26 05:13:08;;;;;;;7.10;1.60;;;;;;;10.94;100.00;99614.69;4839989;29;20042;-80
2022/09/26 05:15:38;;;;;;;8.00;1.80;;;;;;;10.59;100.00;99544.66;4843973;29;20029;-81
2022/09/26 05:18:06;;;;;;;8.60;1.52;;;;;;;10.96;100.00;99598.31;4840209;29;20022;-80
2022/09/26 05:20:33;;;;;;;7.40;1.45;;;;;;;10.97;100.00;99595.41;4825445;29;20102;-80
2022/09/26 05:23:02;;;;;;;8.10;1.75;;;;;;;10.97;100.00;99595.41;4840495;29;20030;-80
2022/09/26 05:28:15;;;;;;;4.55;1.23;;;;;;;10.93;100.00;99582.66;4840885;29;20484;-80
2022/09/26 05:30:40;;;;;;;4.25;1.23;;;;;;;10.95;100.00;99585.91;4840754;29;20030;-80
2022/09/26 05:33:06;;;;;;;5.35;1.30;;;;;;;10.85;100.00;99572.19;4809106;29;20479;-79
2022/09/26 05:35:34;;;;;;;4.90;1.27;;;;;;;10.73;100.00;99550.66;4839530;29;20101;-79
2022/09/26 05:38:02;;;;;;;6.82;1.70;;;;;;;10.85;100.00;99564.94;4840292;29;20346;-80
2022/09/26 05:43:11;;;;;;;5.45;1.20;;;;;;;11.00;100.00;99577.97;4842883;29;20082;-80
2022/09/26 05:45:37;;;;;;;8.02;2.25;;;;;;;10.98;100.00;99569.31;4826545;29;20075;-80
2022/09/26 05:48:04;;;;;;;10.82;1.67;;;;;;;11.05;100.00;99580.78;4829899;29;20033;-81
2022/09/26 05:50:31;;;;;;;8.18;1.70;;;;;;;11.05;100.00;99586.16;4848352;29;20057;-81
2022/09/26 05:53:00;;;;;;;5.25;1.50;;;;;;;11.07;100.00;99577.88;4855374;29;20060;-79
2022/09/26 05:55:27;;;;;;;4.65;1.40;;;;;;;11.02;100.00;99565.91;4829437;29;20046;-80
2022/09/26 05:57:55;;;;;;;10.32;1.63;;;;;;;11.16;100.00;99581.81;4831249;29;20046;-81
2022/09/26 06:00:21;;;;;;;7.35;1.60;;;;;;;11.20;100.00;99574.94;4849921;29;20034;-78
2022/09/26 06:02:54;;;;;;;7.88;1.67;;;;;;;11.17;100.00;99562.78;4859996;29;20037;-79
2022/09/26 06:05:20;;;;;;;8.35;1.70;;;;;;;11.12;100.00;99553.75;4870089;29;20044;-81
2022/09/26 06:07:45;;;;;;;12.55;1.90;;;;;;;10.78;100.00;99492.41;4869113;29;20405;-81
2022/09/26 06:10:12;;;;;;;6.85;1.77;;;;;;;11.16;100.00;99539.59;4849268;29;20033;-82
2022/09/26 06:12:37;;;;;;;9.80;1.80;;;;;;;11.28;100.00;99559.25;4854749;29;20449;-81
2022/09/26 06:15:04;;;;;;;10.02;2.10;;;;;;;11.42;100.00;99565.25;4851099;29;20030;-81
2022/09/26 06:17:29;;;;;;;12.65;2.38;;;;;;;11.42;100.00;99554.47;4850962;29;20042;-81
2022/09/26 06:19:55;;;;;;;8.75;2.00;;;;;;;11.39;100.00;99540.63;4844664;29;20030;-80
2022/09/26 06:22:20;;;;;;;7.05;1.70;;;;;;;11.53;100.00;99564.41;4844635;29;20029;-80
2022/09/26 06:24:46;;;;;;;8.18;1.50;;;;;;;11.58;100.00;99563.69;4829571;29;20030;-80
2022/09/26 06:27:11;;;;;;;12.32;1.98;;;;;;;11.60;100.00;99556.19;4844551;29;20034;-79
2022/09/26 06:29:37;;;;;;;9.27;1.80;;;;;;;11.66;100.00;99555.25;4829281;29;20128;-80
2022/09/26 06:32:02;;;;;;;11.32;1.80;;;;;;;11.64;100.00;99541.19;4847067;29;20074;-79
2022/09/26 06:34:27;;;;;;;6.95;1.58;;;;;;;11.73;100.00;99547.03;4847551;29;20021;-80
2022/09/26 06:36:53;;;;;;;9.75;1.70;;;;;;;11.53;100.00;99509.72;4830386;29;20090;-80
2022/09/26 06:39:18;;;;;;;7.03;1.73;;;;;;;11.61;100.00;99509.31;4846805;29;20052;-80
2022/09/26 06:41:44;;;;;;;11.23;2.08;;;;;;;11.91;100.00;99548.78;4824979;29;20072;-80
2022/09/26 06:44:09;;;;;;;9.13;1.80;;;;;;;11.97;100.00;99547.81;4856347;29;20040;-80
2022/09/26 06:46:35;;;;;;;8.43;1.88;;;;;;;12.02;100.00;99544.41;4840157;29;20453;-81
2022/09/26 06:49:00;;;;;;;8.88;1.73;;;;;;;12.03;100.00;99548.75;4853101;29;20029;-81
2022/09/26 06:51:26;;;;;;;7.43;1.60;;;;;;;11.98;100.00;99530.59;4850522;29;20048;-80
2022/09/26 06:53:52;;;;;;;8.48;1.65;;;;;;;12.00;100.00;99539.25;4865949;29;20124;-81
2022/09/26 06:56:17;;;;;;;7.32;1.90;;;;;;;12.03;100.00;99533.41;4849824;29;20053;-81
2022/09/26 06:58:42;;;;;;;8.50;2.05;;;;;;;12.09;100.00;99535.13;4864122;29;20030;-80
2022/09/26 07:01:09;;;;;;;7.35;1.40;;;;;;;12.08;100.00;99530.78;4830244;29;20065;-80
2022/09/26 07:03:35;;;;;;;7.60;1.50;;;;;;;12.09;100.00;99528.94;4865897;29;20326;-79
2022/09/26 07:06:02;;;;;;;6.82;1.35;;;;;;;12.09;100.00;99534.31;4846994;29;20086;-80
2022/09/26 07:08:27;;;;;;;11.85;1.70;;;;;;;11.87;100.00;99501.81;4819299;29;20065;-80
2022/09/26 07:10:58;;;;;;;5.45;1.30;;;;;;;11.89;100.00;99491.63;4864445;29;20021;-81
2022/09/26 07:13:24;;;;;;;10.45;1.70;;;;;;;12.08;100.00;99513.78;4849531;29;20124;-80
2022/09/26 07:15:50;;;;;;;8.00;1.58;;;;;;;12.28;100.00;99524.94;4817484;29;20061;-79
2022/09/26 07:18:16;;;;;;;10.50;1.77;;;;;;;12.35;100.00;99524.81;4863153;29;20449;-79
2022/09/26 07:20:44;;;;;;;7.00;1.50;;;;;;;12.22;100.00;99497.09;4847750;29;20053;-79
2022/09/26 07:23:10;;;;;;;6.55;1.50;;;;;;;12.33;100.00;99513.47;4861255;29;20124;-79
2022/09/26 07:25:37;;;;;;;8.95;1.80;;;;;;;12.33;100.00;99511.56;4862765;29;20049;-79
2022/09/26 07:28:03;;;;;;;7.28;1.80;;;;;;;12.19;100.00;99478.69;4846828;29;20417;-80
2022/09/26 07:30:28;;;;;;;12.80;1.70;;;;;;;12.19;100.00;99476.00;4830895;29;20033;-79
2022/09/26 07:32:59;;;;;;;6.82;1.88;;;;;;;12.48;100.00;99496.72;4867565;29;20040;-81
2022/09/26 07:35:26;;;;;;;6.57;1.40;;;;;;;12.44;100.00;99491.00;4870387;29;20054;-81
2022/09/26 07:37:54;;;;;;;9.55;1.70;;;;;;;12.52;100.00;99497.88;4877479;29;20132;-82
2022/09/26 07:40:21;;;;;;;8.02;1.65;;;;;;;12.23;100.00;99458.25;4842380;29;20037;-82
2022/09/26 07:42:47;;;;;;;8.05;2.03;;;;;;;12.48;100.00;99492.13;4824531;29;20172;-80
2022/09/26 07:45:12;;;;;;;8.57;1.60;;;;;;;12.42;100.00;99485.03;4855080;29;20064;-82
2022/09/26 07:50:21;;;;;;;10.48;1.90;;;;;;;12.40;100.00;99470.97;4861109;29;20044;-83
2022/09/26 07:52:49;;;;;;;10.45;2.10;;;;;;;12.53;100.00;99494.13;4839490;29;20144;-82
2022/09/26 07:55:20;;;;;;;8.80;1.92;;;;;;;12.37;100.00;99460.66;4853953;29;20104;-81
2022/09/26 07:57:48;;;;;;;9.35;2.10;;;;;;;12.56;100.00;99483.66;4856893;29;20025;-82
2022/09/26 08:00:16;;;;;;;9.27;1.90;;;;;;;12.61;100.00;99486.41;4839964;29;20101;-83
2022/09/26 08:08:03;;;;;;;9.63;1.92;;;;;;;11.74;100.00;99341.97;5221240;23;20061;-82
2022/09/26 08:10:33;;;;;;;5.43;1.52;;;;;;;11.79;100.00;99348.53;4863123;29;20024;-82
2022/09/26 08:13:00;;;;;;;6.78;1.45;;;;;;;12.68;100.00;99486.25;4857177;29;20026;-82
2022/09/26 08:15:26;;;;;;;10.77;1.73;;;;;;;11.69;100.00;99325.75;4857629;29;20029;-81
2022/09/26 08:17:53;;;;;;;11.73;1.60;;;;;;;12.73;100.00;99478.25;4839262;29;20030;-82
2022/09/26 08:20:18;;;;;;;9.98;1.70;;;;;;;11.59;100.00;99312.09;4835885;29;20033;-81
2022/09/26 08:22:44;;;;;;;7.53;1.85;;;;;;;12.35;100.00;99428.53;4834995;29;20026;-82
2022/09/26 08:25:09;;;;;;;5.43;1.50;;;;;;;11.86;100.00;99355.44;4820954;29;20763;-82
2022/09/26 08:27:35;;;;;;;7.28;1.70;;;;;;;11.65;100.00;99310.28;4854235;29;20094;-80
2022/09/26 08:30:01;;;;;;;8.38;1.60;;;;;;;12.65;100.00;99471.41;4830493;29;20453;-81
2022/09/26 08:32:31;;;;;;;8.32;1.33;;;;;;;12.69;100.00;99472.53;4836964;29;20034;-81
2022/09/26 08:34:59;;;;;;;10.00;1.45;;;;;;;11.90;100.00;99361.16;4980619;24;20056;-82
2022/09/26 08:37:26;;;;;;;5.80;1.48;;;;;;;11.32;100.00;99249.09;4868831;29;20077;-82
2022/09/26 08:39:52;;;;;;;8.45;1.23;;;;;;;11.99;100.00;99341.66;4869771;29;20025;-83
2022/09/26 08:42:50;;;;;;;8.18;1.30;;;;;;;12.87;100.00;99451.72;4881058;29;20040;-81
2022/09/26 08:48:32;;;;;;;6.35;1.23;;;;;;;12.93;100.00;99453.44;4883840;29;20064;-81
2022/09/26 08:51:24;;;;;;;4.07;1.20;;;;;;;12.91;100.00;99447.47;4879306;29;20033;-80
2022/09/26 08:53:56;;;;;;;5.25;1.08;;;;;;;11.97;100.00;99297.13;4874104;29;20034;-83
2022/09/26 08:56:31;;;;;;;6.07;1.30;;;;;;;11.68;100.00;99278.28;4876548;29;20034;-82
2022/09/26 08:58:58;;;;;;;4.95;1.20;;;;;;;11.60;100.00;99254.44;4859766;29;20085;-80
2022/09/26 09:01:28;;;;;;;5.30;1.00;;;;;;;12.29;100.00;99363.97;4855243;29;20045;-81
2022/09/26 09:04:01;;;;;;;3.78;1.00;;;;;;;12.12;100.00;99332.44;4877443;29;20060;-82
2022/09/26 09:06:28;;;;;;;5.95;1.50;;;;;;;12.07;100.00;99334.22;4864277;29;20044;-81
2022/09/26 09:08:55;;;;;;;5.05;1.30;;;;;;;12.28;100.00;99355.03;4875337;29;20027;-83
2022/09/26 09:11:41;;;;;;;5.75;1.27;;;;;;;12.71;100.00;99439.88;4867447;29;20017;-83
2022/09/26 09:14:35;;;;;;;4.93;1.20;;;;;;;12.67;100.00;99439.56;4863953;29;20029;-82
2022/09/26 09:17:20;;;;;;;5.23;1.13;;;;;;;12.37;100.00;99425.59;4863662;29;20048;-82
2022/09/26 09:19:49;;;;;;;5.57;1.13;;;;;;;12.52;100.00;99438.53;4877925;29;20025;-82
2022/09/26 09:22:31;;;;;;;7.07;1.33;;;;;;;12.53;100.00;99438.25;4882171;29;20026;-82
2022/09/26 09:25:09;;;;;;;3.55;1.10;;;;;;;11.70;100.00;99294.22;4865599;29;20046;-83
2022/09/26 09:27:53;;;;;;;2.92;1.13;;;;;;;12.63;100.00;99427.63;4880808;29;20029;-82
2022/09/26 09:30:36;;;;;;;4.10;1.00;;;;;;;12.61;100.00;99424.34;4880637;29;20049;-82
2022/09/26 09:33:13;;;;;;;9.40;1.10;;;;;;;11.19;100.00;99201.75;4865532;29;20052;-82
2022/09/26 09:35:48;;;;;;;3.40;1.00;;;;;;;12.08;100.00;99346.63;4881363;29;20049;-82
2022/09/26 09:38:19;;;;;;;;;;;;;;;12.73;100.00;99415.38;4864350;29;20062;-82
2022/09/26 09:40:57;;;;;;;4.63;1.40;;;;;;;12.80;100.00;99410.59;4875503;29;19912;-82
2022/09/26 09:43:34;;;;;;;6.40;1.77;;;;;;;11.69;100.00;99250.31;4863208;29;20368;-81
2022/09/26 09:46:11;;;;;;;4.78;1.15;;;;;;;11.62;100.00;99241.56;4854812;29;20030;-82
2022/09/26 09:48:37;;;;;;;4.10;1.10;;;;;;;12.07;100.00;99281.09;4874911;29;20469;-82
2022/09/26 09:51:32;;;;;;;4.28;1.05;;;;;;;12.91;100.00;99410.50;4867051;29;20044;-82
2022/09/26 09:54:16;;;;;;;7.95;1.48;;;;;;;11.91;100.00;99266.56;4872861;29;20009;-81
2022/09/26 10:18:15;;;;;;;4.55;0.60;;;;;;;12.67;100.00;99263.34;5843666;23;21040;-82
2022/09/26 10:20:53;;;;;;;3.08;0.70;;;;;;;13.20;100.00;99342.81;4853384;29;20014;-82
2022/09/26 10:23:35;;;;;;;3.42;0.70;;;;;;;12.48;100.00;99229.63;4852262;29;20034;-84
2022/09/26 10:29:07;;;;;;;2.72;0.55;;;;;;;13.92;100.00;99403.91;5728562;23;20057;-83
2022/09/26 10:31:37;;;;;;;2.50;0.50;;;;;;;13.96;100.00;99396.09;4866891;29;20097;-82
2022/09/26 10:44:35;;;;;;;4.05;0.70;;;;;;;13.91;100.00;99298.69;5175815;24;20061;-82
2022/09/26 10:47:10;;;;;;;4.07;0.95;;;;;;;13.00;100.00;99177.88;4849233;29;20034;-82
2022/09/26 10:49:42;;;;;;;5.38;0.77;;;;;;;14.36;100.00;99376.69;4848395;29;20030;-82
2022/09/26 10:52:10;;;;;;;3.80;0.90;;;;;;;14.42;100.00;99372.97;4848282;29;20069;-82
2022/09/26 10:54:45;;;;;;;5.90;1.00;;;;;;;13.74;100.00;99242.88;4865720;29;20018;-81
2022/09/26 10:57:22;;;;;;;4.90;1.73;;;;;;;14.19;100.00;99297.56;4849916;29;20059;-81
2022/09/26 10:59:54;;;;;;;5.47;1.00;;;;;;;13.18;100.00;99150.50;4849478;29;20097;-82
2022/09/26 11:02:23;;;;;;;6.53;1.05;;;;;;;14.69;100.00;99372.09;4851028;29;20033;-81
2022/09/26 11:07:42;;;;;;;5.25;1.00;;;;;;;13.77;100.00;99226.13;4849383;29;20053;-82
2022/09/26 11:15:22;;;;;;;6.75;0.85;;;;;;;14.05;100.00;99306.13;5598596;24;20066;-83
2022/09/26 11:17:50;;;;;;;5.22;0.85;;;;;;;13.00;100.00;99156.28;4886699;29;20029;-83
2022/09/26 11:25:31;;;;;;;5.45;0.95;;;;;;;14.30;100.00;99373.16;5103767;23;20052;-81
2022/09/26 11:28:10;;;;;;;8.25;0.90;;;;;;;13.04;100.00;99143.88;4870282;29;20017;-81
2022/09/26 11:33:17;;;;;;;4.50;1.10;;;;;;;13.44;100.00;99216.38;4923584;24;20057;-82
2022/09/26 11:35:58;;;;;;;10.85;1.10;;;;;;;14.41;100.00;99338.88;4885549;29;20030;-83
2022/09/26 11:38:23;;;;;;;4.75;0.88;;;;;;;14.50;100.00;99342.75;4869908;29;20052;-82
2022/09/26 11:41:35;;;;;;;8.02;1.42;;;;;;;14.66;100.00;99338.22;4885447;29;20013;-83
2022/09/26 12:18:14;;;;;;;7.60;1.27;;;;;;;14.71;100.00;99313.09;5919654;23;20063;31
2022/09/26 12:26:13;;;;;;;4.18;1.02;;;;;;;13.65;100.00;99154.44;5614808;24;20275;-83
2022/09/26 12:28:39;;;;;;;3.58;1.10;;;;;;;14.73;100.00;99290.06;4882710;29;20033;-83
2022/09/26 12:31:09;;;;;;;5.03;1.35;;;;;;;14.83;100.00;99294.72;4884844;29;20030;-83
2022/09/26 12:34:01;;;;;;;5.13;1.27;;;;;;;14.85;100.00;99287.16;4882331;29;20029;-81
2022/09/26 12:36:48;;;;;;;8.55;1.65;;;;;;;14.88;100.00;99292.03;4860583;29;20029;-81
2022/09/26 12:39:13;;;;;;;10.18;1.10;;;;;;;14.99;100.00;99282.88;4866604;29;20037;-82
2022/09/26 12:44:30;;;;;;;4.75;1.10;;;;;;;15.18;100.00;99285.91;5026873;23;20058;-83
2022/09/26 12:47:14;;;;;;;4.22;0.93;;;;;;;15.23;100.00;99285.09;4815208;29;20027;-84
2022/09/26 13:31:29;;;;;;;6.47;1.38;;;;;;;15.28;100.00;99258.03;5705840;24;20426;-80
2022/09/26 13:34:04;;;;;;;6.18;1.20;;;;;;;15.02;100.00;99239.00;4804067;30;20041;-81
2022/09/26 13:36:32;;;;;;;4.97;1.27;;;;;;;15.09;100.00;99254.19;4806287;29;20037;-80
2022/09/26 13:39:08;;;;;;;5.80;1.20;;;;;;;15.06;100.00;99252.81;4822716;29;20051;-81
2022/09/26 13:42:01;;;;;;;5.93;1.27;;;;;;;15.08;100.00;99255.28;4830273;29;20034;-80
2022/09/26 13:45:04;;;;;;;5.25;1.00;;;;;;;14.88;100.00;99261.44;4806730;30;20087;-81
2022/09/26 13:47:48;;;;;;;13.23;1.63;;;;;;;14.82;100.00;99260.59;4829234;29;20023;-81
2022/09/26 13:50:54;;;;;;;8.90;1.67;;;;;;;14.66;100.00;99258.91;4810781;29;20042;-82
2022/09/26 13:53:48;;;;;;;8.82;1.55;;;;;;;14.51;100.00;99255.06;4813235;29;20042;-82
2022/09/26 13:56:35;;;;;;;7.60;1.42;;;;;;;14.37;100.00;99259.28;4838495;29;20046;-82
2022/09/26 13:59:08;;;;;;;10.40;1.48;;;;;;;14.22;100.00;99253.78;4827546;29;20041;-82
2022/09/26 14:01:35;;;;;;;6.53;1.20;;;;;;;14.13;100.00;99255.31;4827629;29;20031;-82
2022/09/26 14:06:56;;;;;;;7.28;1.38;;;;;;;12.72;100.00;99035.91;5676158;23;20057;-83
2022/09/26 14:27:04;;;;;;;9.88;1.63;;;;;;;14.14;100.00;99173.09;6177637;22;1718495;-83
2022/09/26 14:29:34;;;;;;;11.50;1.90;;;;;;;13.13;100.00;99045.94;6247251;23;20031;-82
2022/09/26 14:32:15;;;;;;;9.75;1.70;;;;;;;14.36;100.00;99248.72;6247570;23;20019;-81
2022/09/26 14:35:13;;;;;;;6.68;1.65;;;;;;;14.02;100.00;99209.28;6230835;23;20288;-79